Mahajanga, Mahajanga Amborovy Airport (FMNM)

NameMahajanga Amborovy Airport
CityMahajanga
CountryMadagascar
ICAOFMNM
IATAMJN
Altitude27 m
CoordinatesGoogle Map
Live Air TrafficLiveATC.net
METARFMNM 162000Z 07004KT 030V100 9999 SCT020CB SCT041 26/20 Q1014 NOSIG
2019-10-16 20:00:00 Wind: East-Northeast (70°) 2.06 m/s - Visibility: > 10000 m - Temperature: 26 °C - Dew point: 20 °C - Humidity: 69.6% - Pressure: 1014 hPa
Statistics

The table below shows the detailed information of all flights to/from Mahajanga, Mahajanga Amborovy Airport (FMNM).